Time;durP1;ratioP1;P1;durP2;ratioP2;P2;SDS_P1;SDS_P2;PMS_P1;PMS_P2;Temp;Humidity;BMP_temperature;BMP_pressure;BME280_temperature;BME280_humidity;BME280_pressure;Samples;Min_cycle;Max_cycle;Signal;HPM_P1;HPM_P2
2023/09/29 00:01:16;;;;;;;15.70;10.80;;;;;;;;;;6271241;28;20053;-74
2023/09/29 00:04:20;;;;;;;16.50;10.07;;;;;;;;;;6267297;28;20052;-74
2023/09/29 00:07:25;;;;;;;15.07;10.20;;;;;;;;;;6265599;28;20352;-75
2023/09/29 00:10:26;;;;;;;14.82;10.68;;;;;;;;;;6265355;28;20056;-75
2023/09/29 00:13:28;;;;;;;16.90;10.77;;;;;;;;;;6264979;28;20229;-74
2023/09/29 00:16:30;;;;;;;17.92;10.75;;;;;;;;;;6269829;28;20261;-74
2023/09/29 00:19:36;;;;;;;13.95;9.32;;;;;;;;;;6270923;28;20377;-73
2023/09/29 00:22:38;;;;;;;16.60;10.27;;;;;;;;;;6271761;28;20108;-75
2023/09/29 00:25:40;;;;;;;18.97;12.13;;;;;;;;;;6272891;28;20044;-75
2023/09/29 00:28:46;;;;;;;18.77;10.13;;;;;;;;;;6274555;28;20060;-74
2023/09/29 00:31:48;;;;;;;18.98;10.55;;;;;;;;;;6274140;28;20063;-74
2023/09/29 00:34:59;;;;;;;16.63;10.80;;;;;;;;;;6267482;28;20349;-74
2023/09/29 00:38:02;;;;;;;13.88;9.73;;;;;;;;;;6272012;28;20128;-73
2023/09/29 00:41:09;;;;;;;12.13;9.98;;;;;;;;;;6271779;28;20120;-75
2023/09/29 00:44:11;;;;;;;18.00;10.88;;;;;;;;;;6269917;28;20140;-73
2023/09/29 00:47:20;;;;;;;14.18;10.40;;;;;;;;;;6250777;28;20053;-74
2023/09/29 00:50:26;;;;;;;15.88;10.30;;;;;;;;;;6247003;28;20218;-74
2023/09/29 00:53:30;;;;;;;17.10;11.85;;;;;;;;;;6256004;28;20050;-74
2023/09/29 00:56:32;;;;;;;14.70;10.05;;;;;;;;;;6245766;28;20296;-74
2023/09/29 00:59:34;;;;;;;19.08;11.13;;;;;;;;;;6245618;28;20057;-73
2023/09/29 01:02:37;;;;;;;14.27;11.27;;;;;;;;;;6245648;28;20053;-75
2023/09/29 01:05:42;;;;;;;20.33;12.10;;;;;;;;;;6259809;28;20459;-73
2023/09/29 01:08:44;;;;;;;15.20;10.45;;;;;;;;;;6268644;28;20103;-73
2023/09/29 01:11:46;;;;;;;13.48;10.75;;;;;;;;;;6273140;28;20051;-73
2023/09/29 01:14:53;;;;;;;17.52;11.07;;;;;;;;;;6270969;28;20064;-74
2023/09/29 01:17:54;;;;;;;15.20;10.65;;;;;;;;;;6267475;28;20053;-74
2023/09/29 01:20:58;;;;;;;13.68;11.05;;;;;;;;;;6264504;28;20049;-74
2023/09/29 01:24:01;;;;;;;19.30;10.95;;;;;;;;;;6270967;28;20065;-72
2023/09/29 01:27:03;;;;;;;13.82;10.77;;;;;;;;;;6262069;28;20060;-73
2023/09/29 01:30:06;;;;;;;13.30;10.82;;;;;;;;;;6258357;28;20064;-74
2023/09/29 01:33:08;;;;;;;18.98;11.30;;;;;;;;;;6243403;28;20045;-73
2023/09/29 01:36:10;;;;;;;15.80;11.00;;;;;;;;;;6245142;28;20326;-74
2023/09/29 01:39:13;;;;;;;15.48;10.90;;;;;;;;;;6246094;28;20059;-74
2023/09/29 01:42:15;;;;;;;18.95;11.38;;;;;;;;;;6269811;28;20080;-74
2023/09/29 01:45:18;;;;;;;16.00;10.90;;;;;;;;;;6269350;28;20402;-73
2023/09/29 01:48:20;;;;;;;14.45;11.43;;;;;;;;;;6267831;28;20060;-74
2023/09/29 01:51:21;;;;;;;14.30;10.48;;;;;;;;;;6268471;28;20322;-74
2023/09/29 01:54:31;;;;;;;16.33;10.07;;;;;;;;;;6267774;28;20554;-73
2023/09/29 01:57:33;;;;;;;15.43;11.13;;;;;;;;;;6266538;28;20301;-74
2023/09/29 02:00:35;;;;;;;19.20;10.95;;;;;;;;;;6269005;28;20103;-74
2023/09/29 02:03:39;;;;;;;15.35;10.95;;;;;;;;;;6268101;28;20056;-73
2023/09/29 02:06:44;;;;;;;14.90;10.60;;;;;;;;;;6268040;28;20075;-73
2023/09/29 02:09:47;;;;;;;14.88;10.57;;;;;;;;;;6267405;28;20053;-72
2023/09/29 02:12:54;;;;;;;15.20;10.88;;;;;;;;;;6242894;28;20045;-75
2023/09/29 02:15:56;;;;;;;16.80;11.00;;;;;;;;;;6245742;28;20053;-73
2023/09/29 02:18:58;;;;;;;16.90;10.90;;;;;;;;;;6246884;28;20348;-74
2023/09/29 02:22:07;;;;;;;19.40;10.80;;;;;;;;;;6243355;28;20038;-74
2023/09/29 02:25:12;;;;;;;14.43;10.70;;;;;;;;;;6239533;28;20042;-72
2023/09/29 02:28:14;;;;;;;15.45;11.65;;;;;;;;;;6260754;28;20076;-71
2023/09/29 02:31:16;;;;;;;13.73;10.20;;;;;;;;;;6240241;28;20054;-74
2023/09/29 02:34:18;;;;;;;13.25;10.70;;;;;;;;;;6242345;28;20053;-74
2023/09/29 02:40:37;;;;;;;16.05;10.48;;;;;;;;;;6254074;28;20237;-74
2023/09/29 02:43:38;;;;;;;13.35;10.57;;;;;;;;;;6243905;28;20045;-72
2023/09/29 02:46:40;;;;;;;15.43;10.55;;;;;;;;;;6245359;28;20064;-74
2023/09/29 02:49:46;;;;;;;16.00;10.45;;;;;;;;;;6244448;28;20049;-74
2023/09/29 02:52:48;;;;;;;15.15;11.15;;;;;;;;;;6244054;28;20080;-74
2023/09/29 02:55:52;;;;;;;14.35;10.93;;;;;;;;;;6264477;28;20111;-73
2023/09/29 02:58:54;;;;;;;19.85;10.90;;;;;;;;;;6255796;28;20143;-73
2023/09/29 03:01:56;;;;;;;16.20;11.52;;;;;;;;;;6243373;28;20065;-75
2023/09/29 03:04:57;;;;;;;14.10;10.57;;;;;;;;;;6235336;28;20069;-74
2023/09/29 03:07:59;;;;;;;15.82;10.52;;;;;;;;;;6252590;28;20060;-73
2023/09/29 03:11:06;;;;;;;14.57;11.00;;;;;;;;;;6256477;28;20064;-73
2023/09/29 03:14:08;;;;;;;15.43;11.45;;;;;;;;;;6244342;28;20041;-73
2023/09/29 03:17:10;;;;;;;15.25;10.98;;;;;;;;;;6243842;28;20064;-73
2023/09/29 03:20:12;;;;;;;18.27;12.55;;;;;;;;;;6242948;28;20245;-72
2023/09/29 03:23:13;;;;;;;15.43;10.75;;;;;;;;;;6243134;28;20394;-72
2023/09/29 03:26:17;;;;;;;16.15;11.52;;;;;;;;;;6254264;28;20550;-72
2023/09/29 03:29:19;;;;;;;17.50;11.20;;;;;;;;;;6266601;28;20053;-73
2023/09/29 03:32:21;;;;;;;14.68;11.80;;;;;;;;;;6269851;28;20338;-74
2023/09/29 03:35:23;;;;;;;16.30;11.07;;;;;;;;;;6266259;28;20304;-72
2023/09/29 03:38:26;;;;;;;16.17;11.57;;;;;;;;;;6266915;28;20058;-72
2023/09/29 03:41:29;;;;;;;19.02;11.50;;;;;;;;;;6266751;28;20045;-74
2023/09/29 03:44:31;;;;;;;15.45;11.10;;;;;;;;;;6265188;28;20053;-72
2023/09/29 03:47:34;;;;;;;16.90;10.90;;;;;;;;;;6270637;28;20050;-74
2023/09/29 03:50:36;;;;;;;16.00;11.05;;;;;;;;;;6272660;28;20053;-74
2023/09/29 03:53:38;;;;;;;16.08;11.25;;;;;;;;;;6271465;28;20379;-73
2023/09/29 03:56:41;;;;;;;16.35;12.00;;;;;;;;;;6273835;28;20053;-73
2023/09/29 03:59:44;;;;;;;16.05;11.50;;;;;;;;;;6275670;28;20072;-73
2023/09/29 04:02:49;;;;;;;19.00;11.82;;;;;;;;;;6273878;28;20079;-73
2023/09/29 04:05:51;;;;;;;15.60;11.75;;;;;;;;;;6272479;28;20068;-73
2023/09/29 04:08:54;;;;;;;16.85;11.18;;;;;;;;;;6271485;28;20056;-73
2023/09/29 04:11:57;;;;;;;18.65;12.27;;;;;;;;;;6269374;28;20377;-72
2023/09/29 04:14:59;;;;;;;16.70;11.52;;;;;;;;;;6272331;28;20135;-73
2023/09/29 04:18:00;;;;;;;15.73;11.27;;;;;;;;;;6272914;28;20229;-71
2023/09/29 04:21:02;;;;;;;16.08;12.65;;;;;;;;;;6270051;28;20103;-74
2023/09/29 04:24:05;;;;;;;25.33;12.88;;;;;;;;;;6268973;28;20061;-71
2023/09/29 04:27:08;;;;;;;19.80;12.02;;;;;;;;;;6268668;28;20068;-74
2023/09/29 04:30:12;;;;;;;21.15;12.52;;;;;;;;;;6271715;28;20341;-72
2023/09/29 04:33:14;;;;;;;16.05;12.27;;;;;;;;;;6271017;28;20116;-72
2023/09/29 04:36:15;;;;;;;18.88;13.52;;;;;;;;;;6269336;28;20071;-74
2023/09/29 04:39:17;;;;;;;18.45;12.07;;;;;;;;;;6271953;28;20049;-71
2023/09/29 04:42:20;;;;;;;18.15;13.10;;;;;;;;;;6269723;28;20059;-72
2023/09/29 04:45:22;;;;;;;18.83;12.32;;;;;;;;;;6271117;28;20065;-73
2023/09/29 04:48:24;;;;;;;17.75;12.32;;;;;;;;;;6269716;28;20044;-73
2023/09/29 04:51:26;;;;;;;21.58;12.77;;;;;;;;;;6271080;28;20072;-74
2023/09/29 04:54:27;;;;;;;19.35;12.68;;;;;;;;;;6272566;28;20052;-74
2023/09/29 04:57:31;;;;;;;20.98;13.77;;;;;;;;;;6266838;28;20055;-74
2023/09/29 05:00:34;;;;;;;;;;;;;;;;;;6269943;28;20049;-74
2023/09/29 05:03:36;;;;;;;17.17;12.25;;;;;;;;;;6269122;28;19925;-73
2023/09/29 05:06:37;;;;;;;20.85;13.40;;;;;;;;;;6268855;28;20045;-76
2023/09/29 05:09:39;;;;;;;21.08;13.23;;;;;;;;;;6272245;28;20284;-77
2023/09/29 05:12:43;;;;;;;23.02;12.82;;;;;;;;;;6270537;28;20061;-75
2023/09/29 05:15:45;;;;;;;;;;;;;;;;;;6271887;28;20057;-76
2023/09/29 05:18:47;;;;;;;17.33;12.85;;;;;;;;;;6261669;28;20094;-76
2023/09/29 05:21:49;;;;;;;17.45;12.38;;;;;;;;;;6270478;28;20048;-76
2023/09/29 05:24:53;;;;;;;20.13;13.75;;;;;;;;;;6271426;28;20118;-74
2023/09/29 05:27:56;;;;;;;21.38;13.00;;;;;;;;;;6269597;28;20049;-73
2023/09/29 05:30:59;;;;;;;18.77;11.98;;;;;;;;;;6268570;28;20276;-72
2023/09/29 05:34:00;;;;;;;16.05;11.82;;;;;;;;;;6267525;28;20264;-77
2023/09/29 05:37:03;;;;;;;17.42;11.27;;;;;;;;;;6267173;28;20068;-75
2023/09/29 05:40:06;;;;;;;19.33;11.80;;;;;;;;;;6268414;28;20048;-76
2023/09/29 05:43:10;;;;;;;;;;;;;;;;;;6270314;28;20058;-76
2023/09/29 05:46:12;;;;;;;19.15;12.32;;;;;;;;;;6268580;28;19925;-76
2023/09/29 05:49:13;;;;;;;15.48;11.02;;;;;;;;;;6269939;28;20063;-76
2023/09/29 05:52:15;;;;;;;18.92;11.80;;;;;;;;;;6272441;28;20233;-76
2023/09/29 05:55:17;;;;;;;21.80;11.82;;;;;;;;;;6271230;28;20112;-76
2023/09/29 05:58:20;;;;;;;17.38;11.32;;;;;;;;;;6267976;28;20291;-76
2023/09/29 06:01:23;;;;;;;15.88;10.40;;;;;;;;;;6267302;28;21577;-76
2023/09/29 06:04:24;;;;;;;17.95;10.38;;;;;;;;;;6272141;28;20049;-77
2023/09/29 06:07:26;;;;;;;16.10;9.68;;;;;;;;;;6270341;28;20049;-76
2023/09/29 06:10:28;;;;;;;16.60;10.45;;;;;;;;;;6267044;28;20057;-76
2023/09/29 06:13:32;;;;;;;16.17;9.68;;;;;;;;;;6268715;28;20053;-76
2023/09/29 06:16:34;;;;;;;15.65;9.98;;;;;;;;;;6268286;28;20058;-77
2023/09/29 06:19:35;;;;;;;20.50;9.43;;;;;;;;;;6268496;28;20272;-76
2023/09/29 06:22:37;;;;;;;15.35;8.98;;;;;;;;;;6269123;28;20052;-76
2023/09/29 06:25:39;;;;;;;15.23;8.35;;;;;;;;;;6266285;28;20048;-76
2023/09/29 06:28:42;;;;;;;13.88;8.40;;;;;;;;;;6258588;28;20123;-76
2023/09/29 06:31:44;;;;;;;21.15;8.57;;;;;;;;;;6244649;28;20058;-75
2023/09/29 06:34:46;;;;;;;9.77;7.93;;;;;;;;;;6241870;28;20116;-76
2023/09/29 06:37:48;;;;;;;11.80;8.43;;;;;;;;;;6244824;28;20041;-76
2023/09/29 06:40:49;;;;;;;15.68;8.80;;;;;;;;;;6242280;28;20064;-75
2023/09/29 06:43:53;;;;;;;15.52;8.40;;;;;;;;;;6265371;28;20318;-75
2023/09/29 06:46:54;;;;;;;11.50;8.57;;;;;;;;;;6268246;28;20053;-77
2023/09/29 06:49:56;;;;;;;10.18;7.53;;;;;;;;;;6269793;28;20053;-76
2023/09/29 06:52:58;;;;;;;12.20;8.70;;;;;;;;;;6269156;28;20079;-76
2023/09/29 06:56:00;;;;;;;10.73;8.27;;;;;;;;;;6267614;28;20049;-76
2023/09/29 06:59:03;;;;;;;12.38;8.00;;;;;;;;;;6270102;28;20052;-77
2023/09/29 07:02:05;;;;;;;15.00;8.52;;;;;;;;;;6269445;28;20045;-76
2023/09/29 07:05:07;;;;;;;12.32;9.00;;;;;;;;;;6266545;28;20361;-77
2023/09/29 07:08:08;;;;;;;14.32;8.63;;;;;;;;;;6268832;28;20049;-76
2023/09/29 07:11:10;;;;;;;12.23;8.40;;;;;;;;;;6264173;28;20049;-76
2023/09/29 07:14:13;;;;;;;12.82;8.85;;;;;;;;;;6266621;28;20053;-76
2023/09/29 07:17:15;;;;;;;13.75;8.48;;;;;;;;;;6266700;28;20272;-76
2023/09/29 07:20:17;;;;;;;11.07;7.72;;;;;;;;;;6268260;28;20245;-76
2023/09/29 07:23:20;;;;;;;14.98;8.10;;;;;;;;;;6269653;28;20261;-76
2023/09/29 07:26:22;;;;;;;11.90;7.50;;;;;;;;;;6267927;28;20061;-76
2023/09/29 07:29:25;;;;;;;11.25;7.78;;;;;;;;;;6267066;28;20076;-76
2023/09/29 07:32:27;;;;;;;12.80;8.82;;;;;;;;;;6269355;28;20052;-76
2023/09/29 07:35:28;;;;;;;10.27;7.90;;;;;;;;;;6268265;28;20080;-76
2023/09/29 07:38:30;;;;;;;10.93;7.70;;;;;;;;;;6267932;28;20083;-76
2023/09/29 07:41:32;;;;;;;12.68;8.30;;;;;;;;;;6267447;28;20056;-76
2023/09/29 07:44:35;;;;;;;12.18;7.63;;;;;;;;;;6265810;28;20053;-76
2023/09/29 07:47:41;;;;;;;;;;;;;;;;;;6267528;28;20245;-76
2023/09/29 07:50:42;;;;;;;22.30;8.68;;;;;;;;;;6266397;28;19925;-76
2023/09/29 07:53:44;;;;;;;12.15;7.38;;;;;;;;;;6267265;28;20116;-76
2023/09/29 07:56:49;;;;;;;11.02;7.55;;;;;;;;;;6268957;28;20257;-77
2023/09/29 07:59:52;;;;;;;12.00;8.10;;;;;;;;;;6267277;28;20523;-77
2023/09/29 08:02:54;;;;;;;;;;;;;;;;;;6269187;28;20048;-76
2023/09/29 08:05:55;;;;;;;13.15;8.23;;;;;;;;;;6266694;28;20029;-76
2023/09/29 08:08:57;;;;;;;14.10;7.65;;;;;;;;;;6270373;28;20083;-76
2023/09/29 08:11:59;;;;;;;11.05;6.80;;;;;;;;;;6266232;28;20445;-77
2023/09/29 08:15:04;;;;;;;16.27;7.60;;;;;;;;;;6263614;28;20053;-77
2023/09/29 08:18:06;;;;;;;11.75;6.18;;;;;;;;;;6265282;28;20174;-77
2023/09/29 08:21:07;;;;;;;12.27;8.20;;;;;;;;;;6267519;28;20107;-76
2023/09/29 08:24:09;;;;;;;9.52;6.50;;;;;;;;;;6263995;28;20067;-77
2023/09/29 08:27:11;;;;;;;12.52;7.68;;;;;;;;;;6264300;28;20289;-77
2023/09/29 08:30:14;;;;;;;9.57;7.55;;;;;;;;;;6267260;28;20068;-77
2023/09/29 08:33:16;;;;;;;11.07;8.07;;;;;;;;;;6269307;28;20409;-77
2023/09/29 08:36:18;;;;;;;11.75;7.63;;;;;;;;;;6271089;28;20103;-77
2023/09/29 08:39:20;;;;;;;18.80;8.15;;;;;;;;;;6267311;28;20388;-75
2023/09/29 08:42:38;;;;;;;11.57;7.30;;;;;;;;;;6272643;28;20064;-78
2023/09/29 08:45:43;;;;;;;10.70;6.65;;;;;;;;;;6272878;28;20547;-77
2023/09/29 08:48:45;;;;;;;14.52;6.80;;;;;;;;;;6270254;28;20057;-77
2023/09/29 08:51:47;;;;;;;10.85;6.90;;;;;;;;;;6269843;28;20322;-76
2023/09/29 08:54:50;;;;;;;14.03;8.07;;;;;;;;;;6263999;28;20042;-76
2023/09/29 08:57:52;;;;;;;13.35;7.53;;;;;;;;;;6271420;28;20053;-76
2023/09/29 09:00:55;;;;;;;13.25;7.32;;;;;;;;;;6268967;28;20068;-76
2023/09/29 09:03:57;;;;;;;10.43;7.43;;;;;;;;;;6269166;28;20060;-76
2023/09/29 09:07:00;;;;;;;11.80;7.38;;;;;;;;;;6269261;28;20095;-77
2023/09/29 09:10:01;;;;;;;12.98;7.88;;;;;;;;;;6275632;28;20203;-77
2023/09/29 09:13:05;;;;;;;10.68;7.32;;;;;;;;;;6270349;28;20055;-77
2023/09/29 09:16:09;;;;;;;10.68;6.97;;;;;;;;;;6270580;28;20144;-77
2023/09/29 09:19:11;;;;;;;13.90;7.82;;;;;;;;;;6270136;28;20057;-77
2023/09/29 09:22:14;;;;;;;13.57;8.32;;;;;;;;;;6271703;28;20264;-76
2023/09/29 09:25:17;;;;;;;11.27;7.50;;;;;;;;;;6268485;28;20053;-76
2023/09/29 09:28:21;;;;;;;13.25;7.25;;;;;;;;;;6271753;28;20057;-76
2023/09/29 09:31:28;;;;;;;12.65;7.13;;;;;;;;;;6267166;28;20053;-76
2023/09/29 09:34:33;;;;;;;13.23;7.32;;;;;;;;;;6269576;28;20292;-76
2023/09/29 09:37:34;;;;;;;11.98;7.13;;;;;;;;;;6271327;28;20091;-76
2023/09/29 09:40:50;;;;;;;13.77;8.13;;;;;;;;;;6270640;28;20100;-77
2023/09/29 09:43:51;;;;;;;11.35;7.90;;;;;;;;;;6268999;28;20086;-77
2023/09/29 09:47:00;;;;;;;13.30;7.53;;;;;;;;;;6269859;28;20067;-76
2023/09/29 09:50:02;;;;;;;12.65;6.97;;;;;;;;;;6270530;28;20114;-77
2023/09/29 09:53:08;;;;;;;7.97;6.60;;;;;;;;;;6270600;28;20065;-78
2023/09/29 09:56:19;;;;;;;12.70;7.57;;;;;;;;;;6270263;28;20056;-76
2023/09/29 09:59:21;;;;;;;10.10;7.85;;;;;;;;;;6269344;28;20388;-76
2023/09/29 10:02:24;;;;;;;11.65;7.15;;;;;;;;;;6267733;28;20048;-77
2023/09/29 10:05:30;;;;;;;12.00;7.40;;;;;;;;;;6268285;28;20119;-77
2023/09/29 10:08:33;;;;;;;13.38;6.90;;;;;;;;;;6270468;28;20079;-77
2023/09/29 10:11:35;;;;;;;13.13;7.80;;;;;;;;;;6266166;28;20405;-75
2023/09/29 10:14:42;;;;;;;12.70;8.52;;;;;;;;;;6268548;28;20040;-76
2023/09/29 10:17:47;;;;;;;13.18;7.22;;;;;;;;;;6267525;28;20060;-76
2023/09/29 10:20:54;;;;;;;12.30;8.02;;;;;;;;;;6267080;28;20091;-76
2023/09/29 10:24:00;;;;;;;12.32;7.30;;;;;;;;;;6245715;28;20112;-76
2023/09/29 10:27:04;;;;;;;11.77;7.03;;;;;;;;;;6242078;28;20058;-76
2023/09/29 10:30:17;;;;;;;12.63;8.43;;;;;;;;;;6245332;28;20065;-76
2023/09/29 10:33:20;;;;;;;10.93;8.95;;;;;;;;;;6240733;28;20230;-75
2023/09/29 10:36:23;;;;;;;9.77;6.93;;;;;;;;;;6243403;28;20048;-76
2023/09/29 10:39:26;;;;;;;15.80;9.35;;;;;;;;;;6244325;28;20073;-76
2023/09/29 10:42:34;;;;;;;11.45;8.00;;;;;;;;;;6246118;28;20057;-76
2023/09/29 10:45:37;;;;;;;14.85;8.52;;;;;;;;;;6240471;28;20290;-77
2023/09/29 10:48:46;;;;;;;13.77;8.35;;;;;;;;;;6242235;28;20081;-77
2023/09/29 10:51:48;;;;;;;13.70;9.23;;;;;;;;;;6241961;28;20068;-76
2023/09/29 10:54:56;;;;;;;17.13;10.07;;;;;;;;;;6243444;28;20112;-76
2023/09/29 10:57:59;;;;;;;12.20;7.90;;;;;;;;;;6242727;28;20250;-76
2023/09/29 11:01:01;;;;;;;12.60;8.48;;;;;;;;;;6245012;28;20188;-75
2023/09/29 11:04:07;;;;;;;14.80;10.90;;;;;;;;;;6242388;28;20088;-76
2023/09/29 11:07:09;;;;;;;15.55;9.30;;;;;;;;;;6242914;28;20067;-76
2023/09/29 11:10:12;;;;;;;15.30;10.68;;;;;;;;;;6248014;28;20049;-76
2023/09/29 11:13:17;;;;;;;15.10;11.18;;;;;;;;;;6266900;28;20045;-76
2023/09/29 11:16:19;;;;;;;14.93;9.27;;;;;;;;;;6269016;28;20114;-76
2023/09/29 11:19:25;;;;;;;12.30;9.68;;;;;;;;;;6265930;28;20056;-76
2023/09/29 11:22:29;;;;;;;13.82;7.60;;;;;;;;;;6266572;28;20050;-76
2023/09/29 11:25:31;;;;;;;10.35;7.00;;;;;;;;;;6266580;28;20061;-76
2023/09/29 11:28:33;;;;;;;12.88;8.05;;;;;;;;;;6266804;28;20060;-76
2023/09/29 11:31:36;;;;;;;;;;;;;;;;;;6267370;28;20051;-76
2023/09/29 11:34:39;;;;;;;11.57;7.43;;;;;;;;;;6264075;28;20132;-76
2023/09/29 11:37:43;;;;;;;15.02;9.43;;;;;;;;;;6267023;28;20064;-76
2023/09/29 11:40:45;;;;;;;10.85;7.32;;;;;;;;;;6268520;28;20406;-76
2023/09/29 11:43:47;;;;;;;14.05;7.45;;;;;;;;;;6266727;28;20048;-75
2023/09/29 11:46:48;;;;;;;14.95;9.02;;;;;;;;;;6268646;28;20053;-76
2023/09/29 11:49:52;;;;;;;9.35;7.97;;;;;;;;;;6266834;28;20123;-76
2023/09/29 11:52:53;;;;;;;13.85;9.05;;;;;;;;;;6269877;28;20329;-76
2023/09/29 11:55:55;;;;;;;15.32;9.13;;;;;;;;;;6265802;28;20487;-76
2023/09/29 11:58:57;;;;;;;12.35;8.45;;;;;;;;;;6263182;28;20057;-76
2023/09/29 12:01:59;;;;;;;13.23;8.35;;;;;;;;;;6268876;28;20053;-76
2023/09/29 12:05:02;;;;;;;13.25;8.23;;;;;;;;;;6264843;28;20329;-76
2023/09/29 12:08:06;;;;;;;16.38;9.23;;;;;;;;;;6268010;28;20164;-76
2023/09/29 12:11:08;;;;;;;13.10;7.38;;;;;;;;;;6272882;28;20137;-76
2023/09/29 12:14:10;;;;;;;15.82;10.13;;;;;;;;;;6271605;28;20049;-76
2023/09/29 12:17:12;;;;;;;13.75;10.45;;;;;;;;;;6271040;28;20052;-76
2023/09/29 12:20:14;;;;;;;;;;;;;;;;;;6273798;28;20068;-76
2023/09/29 12:23:16;;;;;;;11.85;9.23;;;;;;;;;;6273970;28;19916;-76
2023/09/29 12:26:19;;;;;;;13.30;8.70;;;;;;;;;;6260420;28;20057;-76
2023/09/29 12:29:21;;;;;;;11.98;9.57;;;;;;;;;;6274746;28;20333;-76
2023/09/29 12:32:22;;;;;;;10.68;7.70;;;;;;;;;;6273028;28;20053;-76
2023/09/29 12:35:26;;;;;;;13.10;8.43;;;;;;;;;;6270390;28;20049;-76
2023/09/29 12:38:28;;;;;;;11.30;8.38;;;;;;;;;;6269698;28;20073;-76
2023/09/29 12:41:29;;;;;;;18.65;13.30;;;;;;;;;;6270798;28;20045;-76
2023/09/29 12:44:31;;;;;;;13.05;7.70;;;;;;;;;;6270891;28;20056;-76
2023/09/29 12:47:34;;;;;;;10.02;7.60;;;;;;;;;;6273968;28;20060;-76
2023/09/29 12:50:40;;;;;;;13.25;8.57;;;;;;;;;;6271546;28;20052;-76
2023/09/29 12:53:42;;;;;;;8.73;7.20;;;;;;;;;;6271808;28;20124;-76
2023/09/29 12:56:43;;;;;;;;;;;;;;;;;;6272177;28;20037;-76
2023/09/29 12:59:46;;;;;;;16.75;11.63;;;;;;;;;;6272204;28;19956;-76
2023/09/29 13:02:51;;;;;;;13.65;10.43;;;;;;;;;;6266418;28;20143;-76
2023/09/29 13:06:00;;;;;;;15.02;10.50;;;;;;;;;;6265325;28;20045;-76
2023/09/29 13:09:05;;;;;;;22.00;10.70;;;;;;;;;;6269701;28;20048;-74
2023/09/29 13:12:38;;;;;;;31.92;26.98;;;;;;;;;;6243874;28;20053;-73
2023/09/29 13:15:41;;;;;;;36.60;31.30;;;;;;;;;;6254805;28;20345;-74
2023/09/29 13:18:51;;;;;;;14.73;12.85;;;;;;;;;;6240088;28;20060;-76
2023/09/29 13:21:55;;;;;;;16.65;10.57;;;;;;;;;;6245104;28;20054;-76
2023/09/29 13:24:57;;;;;;;12.38;8.90;;;;;;;;;;6247562;28;20064;-76
2023/09/29 13:28:13;;;;;;;11.38;6.68;;;;;;;;;;6248916;28;20053;-76
2023/09/29 13:31:15;;;;;;;10.23;7.13;;;;;;;;;;6241544;28;20046;-76
2023/09/29 13:34:17;;;;;;;10.02;6.93;;;;;;;;;;6268785;28;20096;-76
2023/09/29 13:37:21;;;;;;;10.68;6.90;;;;;;;;;;6268088;28;20053;-76
2023/09/29 13:40:23;;;;;;;12.32;7.70;;;;;;;;;;6269154;28;20052;-76
2023/09/29 13:43:25;;;;;;;;;;;;;;;;;;6269724;28;20061;-76
2023/09/29 13:46:29;;;;;;;8.65;6.57;;;;;;;;;;6268539;28;19925;-76
2023/09/29 13:49:32;;;;;;;14.05;7.88;;;;;;;;;;6243369;28;20069;-76
2023/09/29 13:52:35;;;;;;;10.05;8.10;;;;;;;;;;6245413;28;20360;-76
2023/09/29 13:55:39;;;;;;;13.15;7.55;;;;;;;;;;6249999;28;20225;-76
2023/09/29 13:58:42;;;;;;;7.70;6.90;;;;;;;;;;6269362;28;20057;-76
2023/09/29 14:01:44;;;;;;;19.17;8.73;;;;;;;;;;6267800;28;20045;-75
2023/09/29 14:04:45;;;;;;;;;;;;;;;;;;6267516;28;20057;-75
2023/09/29 14:07:48;;;;;;;14.57;8.40;;;;;;;;;;6268384;28;19917;-76
2023/09/29 14:10:50;;;;;;;10.35;7.20;;;;;;;;;;6267603;28;20061;-76
2023/09/29 14:13:52;;;;;;;31.27;21.00;;;;;;;;;;6274343;28;20053;-75
2023/09/29 14:16:54;;;;;;;;;;;;;;;;;;6269376;28;20136;-75
2023/09/29 14:19:55;;;;;;;34.50;25.48;;;;;;;;;;6268046;28;19980;-74
2023/09/29 14:22:58;;;;;;;;;;;;;;;;;;6265928;28;20114;-75
2023/09/29 14:26:01;;;;;;;44.83;30.08;;;;;;;;;;6268965;28;19971;-75
2023/09/29 14:29:03;;;;;;;38.33;27.10;;;;;;;;;;6268306;28;20098;-75
2023/09/29 14:35:21;;;;;;;12.48;7.50;;;;;;;;;;6266272;28;20325;-78
2023/09/29 14:38:24;;;;;;;14.40;7.75;;;;;;;;;;6242200;28;20108;-78
2023/09/29 14:41:26;;;;;;;13.63;6.80;;;;;;;;;;6244275;28;20045;-78
2023/09/29 14:44:28;;;;;;;9.55;6.20;;;;;;;;;;6244294;28;20064;-77
2023/09/29 14:47:31;;;;;;;11.00;7.18;;;;;;;;;;6251354;28;20056;-77
2023/09/29 14:50:33;;;;;;;10.75;6.45;;;;;;;;;;6267164;28;20321;-76
2023/09/29 14:53:39;;;;;;;8.70;6.38;;;;;;;;;;6241218;28;20053;-76
2023/09/29 14:56:41;;;;;;;11.20;6.82;;;;;;;;;;6243395;28;20045;-77
2023/09/29 14:59:43;;;;;;;11.77;7.10;;;;;;;;;;6268320;28;20108;-77
2023/09/29 15:02:45;;;;;;;9.45;6.95;;;;;;;;;;6263720;28;20056;-77
2023/09/29 15:05:47;;;;;;;10.73;6.03;;;;;;;;;;6265399;28;20049;-77
2023/09/29 15:08:51;;;;;;;8.82;6.00;;;;;;;;;;6265191;28;20060;-77
2023/09/29 15:11:53;;;;;;;9.55;5.55;;;;;;;;;;6266107;28;20109;-77
2023/09/29 15:14:55;;;;;;;9.93;6.55;;;;;;;;;;6264771;28;20129;-77
2023/09/29 15:17:57;;;;;;;9.90;6.03;;;;;;;;;;6264319;28;20116;-77
2023/09/29 15:21:01;;;;;;;11.60;6.32;;;;;;;;;;6265226;28;20103;-77
2023/09/29 15:24:08;;;;;;;9.45;6.25;;;;;;;;;;6270262;28;20048;-78
2023/09/29 15:27:10;;;;;;;11.20;7.60;;;;;;;;;;6265383;28;20079;-78
2023/09/29 15:30:13;;;;;;;9.27;6.80;;;;;;;;;;6265449;28;20045;-76
2023/09/29 15:33:16;;;;;;;9.85;7.20;;;;;;;;;;6264458;28;20056;-77
2023/09/29 15:36:18;;;;;;;11.57;7.70;;;;;;;;;;6265689;28;20665;-76
2023/09/29 15:39:21;;;;;;;;;;;;;;;;;;6267128;28;20064;-77
2023/09/29 15:42:23;;;;;;;8.13;6.65;;;;;;;;;;6269173;28;19927;-77
2023/09/29 15:45:26;;;;;;;7.63;6.38;;;;;;;;;;6275575;28;20296;-77
2023/09/29 15:48:38;;;;;;;9.68;6.40;;;;;;;;;;6271759;28;20049;-76
2023/09/29 15:51:40;;;;;;;11.85;6.13;;;;;;;;;;6249158;28;20053;-75
2023/09/29 15:54:43;;;;;;;10.93;5.78;;;;;;;;;;6263813;28;20077;-76
2023/09/29 15:57:45;;;;;;;10.52;6.25;;;;;;;;;;6271415;28;20053;-77
2023/09/29 16:00:47;;;;;;;11.82;6.18;;;;;;;;;;6269201;28;20057;-75
2023/09/29 16:03:49;;;;;;;11.27;6.45;;;;;;;;;;6272370;28;20055;-76
2023/09/29 16:06:51;;;;;;;12.02;7.07;;;;;;;;;;6271067;28;20061;-76
2023/09/29 16:09:55;;;;;;;10.82;6.40;;;;;;;;;;6270483;28;20041;-75
2023/09/29 16:12:57;;;;;;;13.77;7.03;;;;;;;;;;6272150;28;20055;-75
2023/09/29 16:15:59;;;;;;;10.63;6.13;;;;;;;;;;6267931;28;20217;-75
2023/09/29 16:19:00;;;;;;;10.43;7.35;;;;;;;;;;6271665;28;20072;-75
2023/09/29 16:22:02;;;;;;;11.70;7.10;;;;;;;;;;6271639;28;20116;-75
2023/09/29 16:25:07;;;;;;;12.52;6.55;;;;;;;;;;6267078;28;20047;-75
2023/09/29 16:28:09;;;;;;;10.38;6.30;;;;;;;;;;6274631;28;20045;-75
2023/09/29 16:31:15;;;;;;;10.90;7.72;;;;;;;;;;6268944;28;20045;-75
2023/09/29 16:34:18;;;;;;;9.52;6.55;;;;;;;;;;6276660;28;20063;-75
2023/09/29 16:37:22;;;;;;;10.27;6.45;;;;;;;;;;6272643;28;20088;-76
2023/09/29 16:40:33;;;;;;;12.43;6.70;;;;;;;;;;6265331;28;20057;-74
2023/09/29 16:43:35;;;;;;;11.23;6.55;;;;;;;;;;6269740;28;20049;-75
2023/09/29 16:46:50;;;;;;;;;;;;;;;;;;;;;
2023/09/29 16:50:01;;;;;;;12.55;7.43;;;;;;;;;;6270776;28;20436;-74
2023/09/29 16:53:03;;;;;;;13.80;7.53;;;;;;;;;;6271617;28;20069;-75
2023/09/29 16:56:06;;;;;;;11.60;6.88;;;;;;;;;;6276621;28;20171;-74
2023/09/29 16:59:09;;;;;;;14.23;6.90;;;;;;;;;;6266669;28;20049;-75
2023/09/29 17:02:11;;;;;;;11.55;7.20;;;;;;;;;;6267561;28;20041;-75
2023/09/29 17:05:14;;;;;;;11.27;6.70;;;;;;;;;;6272278;28;20080;-75
2023/09/29 17:11:35;;;;;;;14.75;6.65;;;;;;;;;;6267660;28;20051;-75
2023/09/29 17:17:53;;;;;;;17.60;6.60;;;;;;;;;;6270927;28;20309;-75
2023/09/29 17:20:55;;;;;;;9.02;6.65;;;;;;;;;;6269110;28;20655;-75
2023/09/29 17:23:57;;;;;;;13.77;7.47;;;;;;;;;;6271416;28;20063;-75
2023/09/29 17:27:02;;;;;;;15.65;7.30;;;;;;;;;;6268580;28;20102;-75
2023/09/29 17:30:04;;;;;;;14.65;7.15;;;;;;;;;;6266472;28;20048;-74
2023/09/29 17:33:25;;;;;;;15.32;7.80;;;;;;;;;;6249425;28;20412;-73
2023/09/29 17:36:36;;;;;;;16.58;8.25;;;;;;;;;;6246912;28;20053;-73
2023/09/29 17:39:39;;;;;;;14.52;7.97;;;;;;;;;;6245543;28;20091;-76
2023/09/29 17:42:42;;;;;;;11.30;7.40;;;;;;;;;;6245469;28;20057;-76
2023/09/29 17:45:47;;;;;;;14.95;7.15;;;;;;;;;;6250653;28;20052;-76
2023/09/29 17:48:52;;;;;;;11.23;7.47;;;;;;;;;;6248518;28;20111;-75
2023/09/29 17:51:54;;;;;;;8.27;6.35;;;;;;;;;;6267431;28;20049;-76
2023/09/29 17:54:56;;;;;;;12.25;6.70;;;;;;;;;;6268430;28;20057;-76
2023/09/29 17:58:00;;;;;;;15.80;8.02;;;;;;;;;;6269556;28;20041;-75
2023/09/29 18:01:06;;;;;;;18.63;11.05;;;;;;;;;;6269599;28;20049;-75
2023/09/29 18:04:08;;;;;;;15.50;9.40;;;;;;;;;;6267826;28;20045;-75
2023/09/29 18:10:30;;;;;;;14.60;9.40;;;;;;;;;;6253362;28;20059;-75
2023/09/29 18:13:34;;;;;;;16.42;9.00;;;;;;;;;;6268687;28;20044;-74
2023/09/29 18:16:36;;;;;;;16.55;9.80;;;;;;;;;;6266132;28;20045;-75
2023/09/29 18:19:48;;;;;;;;;;;;;;;;;;;;;